createdAt,value
2019-04-29T00:00:54.821Z,102008.61
2019-04-29T00:03:27.641Z,102010.58
2019-04-29T00:05:58.511Z,102011.48
2019-04-29T00:08:30.214Z,102016.77
2019-04-29T00:11:01.965Z,102021.14
2019-04-29T00:13:32.729Z,102020.56
2019-04-29T00:16:19.843Z,102020.22
2019-04-29T00:18:52.121Z,102026.86
2019-04-29T00:21:24.276Z,102024.67
2019-04-29T00:24:03.554Z,102025.92
2019-04-29T00:26:28.365Z,102025.17
2019-04-29T00:29:09.732Z,102026.97
2019-04-29T00:31:41.369Z,102027.88
2019-04-29T00:34:11.934Z,102027.02
2019-04-29T00:36:51.370Z,102031.55
2019-04-29T00:39:26.389Z,102036.41
2019-04-29T00:42:06.731Z,102038.23
2019-04-29T00:44:37.335Z,102033.97
2019-04-29T00:47:07.809Z,102034.63
2019-04-29T00:49:38.507Z,102038.20
2019-04-29T00:52:10.193Z,102046.49
2019-04-29T00:54:51.252Z,102046.05
2019-04-29T00:57:21.910Z,102044.61
2019-04-29T00:59:56.581Z,102044.59
2019-04-29T01:02:27.293Z,102044.11
2019-04-29T01:04:59.003Z,102045.94
2019-04-29T01:07:45.061Z,102047.28
2019-04-29T01:10:15.761Z,102048.83
2019-04-29T01:12:46.356Z,102045.35
2019-04-29T01:15:22.235Z,102044.86
2019-04-29T01:17:52.796Z,102047.89
2019-04-29T01:20:38.304Z,102049.32
2019-04-29T01:23:09.025Z,102044.80
2019-04-29T01:25:41.030Z,102043.86
2019-04-29T01:28:13.381Z,102042.57
2019-04-29T01:31:07.213Z,102043.66
2019-04-29T01:33:59.306Z,102043.61
2019-04-29T01:36:34.277Z,102043.13
2019-04-29T01:39:17.075Z,102044.09
2019-04-29T01:41:59.504Z,102049.38
2019-04-29T01:44:57.513Z,102052.65
2019-04-29T01:47:28.159Z,102048.53
2019-04-29T01:49:58.892Z,102051.66
2019-04-29T01:52:37.489Z,102058.50
2019-04-29T01:55:08.435Z,102061.42
2019-04-29T01:57:39.006Z,102055.42
2019-04-29T02:00:20.684Z,102055.21
2019-04-29T02:02:51.285Z,102058.48
2019-04-29T02:05:22.112Z,102060.16
2019-04-29T02:07:55.994Z,102061.02
2019-04-29T02:10:29.863Z,102060.08
2019-04-29T02:13:02.196Z,102062.50
2019-04-29T02:15:39.457Z,102059.91
2019-04-29T02:18:11.865Z,102062.86
2019-04-29T02:20:44.259Z,102073.84
2019-04-29T02:23:18.158Z,102071.61
2019-04-29T02:25:51.202Z,102073.35
2019-04-29T02:28:25.439Z,102071.02
2019-04-29T02:30:59.432Z,102069.78
2019-04-29T02:33:33.675Z,102069.91
2019-04-29T02:36:05.880Z,102059.81
2019-04-29T02:38:40.017Z,102061.20
2019-04-29T02:41:16.935Z,102071.61
2019-04-29T02:43:49.796Z,102074.16
2019-04-29T02:46:22.170Z,102083.94
2019-04-29T02:48:54.453Z,102079.52
2019-04-29T02:51:44.580Z,102085.95
2019-04-29T02:54:17.135Z,102080.95
2019-04-29T02:56:51.016Z,102083.13
2019-04-29T02:59:31.148Z,102085.81
2019-04-29T03:02:16.125Z,102076.84
2019-04-29T03:04:51.838Z,102075.14
2019-04-29T03:07:23.707Z,102070.95
2019-04-29T03:10:15.524Z,102071.25
2019-04-29T03:12:46.672Z,102077.05
2019-04-29T03:15:29.731Z,102072.19
2019-04-29T03:18:01.677Z,102069.69
2019-04-29T03:20:35.758Z,102068.58
2019-04-29T03:23:17.786Z,102065.05
2019-04-29T03:25:56.723Z,102066.97
2019-04-29T03:28:27.522Z,102066.53
2019-04-29T03:30:58.997Z,102069.33
2019-04-29T03:33:42.915Z,102079.55
2019-04-29T03:36:14.266Z,102078.22
2019-04-29T03:38:45.786Z,102078.17
2019-04-29T03:41:16.971Z,102083.53
2019-04-29T03:43:49.222Z,102084.96
2019-04-29T03:46:20.502Z,102083.05
2019-04-29T03:48:56.617Z,102089.16
2019-04-29T03:51:27.373Z,102099.08
2019-04-29T03:54:00.113Z,102095.06
2019-04-29T03:56:34.189Z,102092.16
2019-04-29T03:59:04.997Z,102098.45
2019-04-29T04:01:42.747Z,102102.56
2019-04-29T04:04:15.443Z,102102.52
2019-04-29T04:06:47.868Z,102106.09
2019-04-29T04:09:28.046Z,102111.09
2019-04-29T04:12:00.907Z,102111.89
2019-04-29T04:14:33.964Z,102114.48
2019-04-29T04:17:11.396Z,102114.08
2019-04-29T04:19:42.247Z,102110.91
2019-04-29T04:22:12.837Z,102116.69
2019-04-29T04:24:45.454Z,102118.50
2019-04-29T04:27:16.357Z,102112.61
2019-04-29T04:29:47.218Z,102115.30
2019-04-29T04:32:17.802Z,102111.53
2019-04-29T04:34:48.702Z,102110.64
2019-04-29T04:37:27.674Z,102111.53
2019-04-29T04:40:06.105Z,102108.59
2019-04-29T04:42:36.747Z,102114.48
2019-04-29T04:45:15.607Z,102121.55
2019-04-29T04:47:53.163Z,102125.53
2019-04-29T04:50:28.327Z,102129.02
2019-04-29T04:52:59.192Z,102130.70
2019-04-29T04:55:35.412Z,102131.61
2019-04-29T04:58:06.185Z,102125.70
2019-04-29T05:00:37.965Z,102124.41
2019-04-29T05:03:15.677Z,102122.98
2019-04-29T05:05:50.149Z,102132.69
2019-04-29T05:08:28.020Z,102138.36
2019-04-29T05:10:58.670Z,102136.61
2019-04-29T05:13:29.317Z,102143.17
2019-04-29T05:15:59.957Z,102147.55
2019-04-29T05:18:30.534Z,102145.17
2019-04-29T05:21:01.177Z,102142.77
2019-04-29T05:23:32.853Z,102142.98
2019-04-29T05:26:04.576Z,102143.08
2019-04-29T05:28:35.212Z,102143.72
2019-04-29T05:31:18.687Z,102152.36
2019-04-29T05:33:49.285Z,102152.99
2019-04-29T05:36:39.235Z,102149.48
2019-04-29T05:39:16.352Z,102156.42
2019-04-29T05:41:46.986Z,102157.89
2019-04-29T05:44:26.089Z,102155.93
2019-04-29T05:47:01.014Z,102155.37
2019-04-29T05:49:41.664Z,102164.33
2019-04-29T05:52:20.090Z,102167.69
2019-04-29T05:54:53.717Z,102167.00
2019-04-29T05:57:25.240Z,102172.05
2019-04-29T05:59:57.252Z,102175.05
2019-04-29T06:02:36.364Z,102173.83
2019-04-29T06:05:05.888Z,102174.84
2019-04-29T06:07:36.637Z,102173.32
2019-04-29T06:10:07.559Z,102174.99
2019-04-29T06:12:38.177Z,102176.92
2019-04-29T06:15:11.034Z,102175.73
2019-04-29T06:17:44.748Z,102173.41
2019-04-29T06:20:33.419Z,102180.40
2019-04-29T06:23:05.071Z,102180.91
2019-04-29T06:25:35.676Z,102183.89
2019-04-29T06:28:11.285Z,102187.22
2019-04-29T06:30:45.264Z,102192.36
2019-04-29T06:33:14.241Z,102200.23
2019-04-29T06:35:47.352Z,102198.38
2019-04-29T06:38:17.371Z,102205.36
2019-04-29T06:40:47.971Z,102203.59
2019-04-29T06:43:30.700Z,102200.50
2019-04-29T06:46:01.397Z,102206.63
2019-04-29T06:48:32.089Z,102209.02
2019-04-29T06:51:02.807Z,102201.73
2019-04-29T06:53:33.522Z,102205.09
2019-04-29T06:56:04.293Z,102210.58
2019-04-29T06:58:36.697Z,102211.95
2019-04-29T07:01:19.424Z,102209.86
2019-04-29T07:03:50.079Z,102216.82
2019-04-29T07:06:32.890Z,102215.13
2019-04-29T07:09:06.115Z,102211.39
2019-04-29T07:11:38.475Z,102209.52
2019-04-29T07:14:12.933Z,102211.39
2019-04-29T07:16:43.708Z,102210.26
2019-04-29T07:19:18.370Z,102212.27
2019-04-29T07:21:53.247Z,102214.38
2019-04-29T07:24:22.009Z,102219.46
2019-04-29T07:26:52.800Z,102219.53
2019-04-29T07:29:29.637Z,102219.27
2019-04-29T07:31:58.125Z,102220.95
2019-04-29T07:34:33.820Z,102227.23
2019-04-29T07:37:16.763Z,102224.18
2019-04-29T07:39:47.840Z,102223.66
2019-04-29T07:42:18.752Z,102217.73
2019-04-29T07:45:07.349Z,102215.92
2019-04-29T07:47:56.322Z,102219.08
2019-04-29T07:50:22.405Z,102216.76
2019-04-29T07:53:15.706Z,102219.38
2019-04-29T07:55:49.646Z,102219.74
2019-04-29T07:58:27.379Z,102221.73
2019-04-29T08:01:00.144Z,102220.48
2019-04-29T08:03:40.369Z,102221.91
2019-04-29T08:06:18.420Z,102223.30
2019-04-29T08:08:55.565Z,102221.69
2019-04-29T08:11:22.421Z,102217.34
2019-04-29T08:13:55.091Z,102218.02
2019-04-29T08:16:32.727Z,102213.63
2019-04-29T08:19:04.955Z,102210.53
2019-04-29T08:21:36.037Z,102207.12
2019-04-29T08:24:06.874Z,102203.53
2019-04-29T08:26:41.428Z,102208.05
2019-04-29T08:29:10.267Z,102211.17
2019-04-29T08:31:44.020Z,102207.80
2019-04-29T08:34:18.740Z,102217.05
2019-04-29T08:36:48.310Z,102213.38
2019-04-29T08:39:19.144Z,102212.03
2019-04-29T08:41:50.110Z,102204.55
2019-04-29T08:44:38.602Z,102207.39
2019-04-29T08:47:16.777Z,102207.27
2019-04-29T08:49:47.811Z,102205.88
2019-04-29T08:52:18.631Z,102207.88
2019-04-29T08:54:50.781Z,102204.48
2019-04-29T08:57:36.476Z,102203.42
2019-04-29T09:00:09.073Z,102199.83
2019-04-29T09:02:41.352Z,102203.30
2019-04-29T09:05:22.306Z,102205.91
2019-04-29T09:07:57.364Z,102197.62
2019-04-29T09:10:38.424Z,102204.06
2019-04-29T09:13:09.344Z,102197.88
2019-04-29T09:15:42.144Z,102203.46
2019-04-29T09:18:13.973Z,102199.44
2019-04-29T09:20:46.781Z,102196.98
2019-04-29T09:23:19.631Z,102199.49
2019-04-29T09:26:08.580Z,102197.28
2019-04-29T09:28:39.403Z,102193.58
2019-04-29T09:31:10.169Z,102192.72
2019-04-29T09:33:44.106Z,102182.66
2019-04-29T09:36:15.114Z,102182.29
2019-04-29T09:38:45.987Z,102184.91
2019-04-29T09:41:30.662Z,102182.37
2019-04-29T09:44:07.378Z,102178.00
2019-04-29T09:46:40.314Z,102181.75
2019-04-29T09:49:11.264Z,102177.62
2019-04-29T09:51:42.047Z,102170.42
2019-04-29T09:54:14.525Z,102169.14
2019-04-29T09:56:45.225Z,102167.05
2019-04-29T09:59:23.590Z,102168.44
2019-04-29T10:02:04.965Z,102171.16
2019-04-29T10:04:38.363Z,102164.14
2019-04-29T10:07:14.476Z,102172.69
2019-04-29T10:09:57.209Z,102167.09
2019-04-29T10:12:25.358Z,102165.06
2019-04-29T10:14:56.088Z,102164.52
2019-04-29T10:17:34.146Z,102163.62
2019-04-29T10:20:11.312Z,102159.47
2019-04-29T10:22:43.105Z,102157.83
2019-04-29T10:25:15.062Z,102162.28
2019-04-29T10:27:45.767Z,102154.38
2019-04-29T10:30:21.192Z,102154.71
2019-04-29T10:32:53.975Z,102147.78
2019-04-29T10:35:24.733Z,102147.84
2019-04-29T10:37:56.507Z,102143.21
2019-04-29T10:40:31.019Z,102151.81
2019-04-29T10:43:19.839Z,102141.94
2019-04-29T10:46:20.910Z,102149.84
2019-04-29T10:49:03.580Z,102140.73
2019-04-29T10:51:37.674Z,102132.98
2019-04-29T10:54:08.831Z,102139.60
2019-04-29T10:56:41.032Z,102136.27
2019-04-29T10:59:34.988Z,102144.65
2019-04-29T11:02:22.527Z,102136.09
2019-04-29T11:05:13.528Z,102131.72
2019-04-29T11:07:45.955Z,102132.09
2019-04-29T11:10:25.644Z,102127.30
2019-04-29T11:12:57.072Z,102123.59
2019-04-29T11:15:32.608Z,102120.56
2019-04-29T11:18:04.108Z,102120.88
2019-04-29T11:20:35.592Z,102118.36
2019-04-29T11:23:18.203Z,102119.37
2019-04-29T11:26:00.964Z,102131.58
2019-04-29T11:28:33.365Z,102127.03
2019-04-29T11:31:14.015Z,102118.86
2019-04-29T11:33:49.386Z,102116.22
2019-04-29T11:36:29.440Z,102117.17
2019-04-29T11:39:00.012Z,102114.77
2019-04-29T11:41:32.011Z,102117.00
2019-04-29T11:44:02.734Z,102117.70
2019-04-29T11:46:33.662Z,102111.35
2019-04-29T11:49:05.872Z,102109.05
2019-04-29T11:52:07.628Z,102104.34
2019-04-29T11:54:20.766Z,102104.09
2019-04-29T11:57:09.566Z,102100.36
2019-04-29T11:59:44.036Z,102104.02
2019-04-29T12:02:45.294Z,102100.17
2019-04-29T12:05:18.016Z,102096.86
2019-04-29T12:08:03.836Z,102092.57
2019-04-29T12:10:32.551Z,102080.50
2019-04-29T12:13:13.062Z,102082.60
2019-04-29T12:15:59.115Z,102082.81
2019-04-29T12:18:33.954Z,102079.36
2019-04-29T12:21:05.755Z,102079.61
2019-04-29T12:23:36.837Z,102076.73
2019-04-29T12:26:07.760Z,102070.95
2019-04-29T12:28:42.748Z,102077.07
2019-04-29T12:31:28.818Z,102072.30
2019-04-29T12:34:17.532Z,102072.14
2019-04-29T12:36:56.260Z,102069.06
2019-04-29T12:39:43.640Z,102063.56
2019-04-29T12:42:15.936Z,102059.86
2019-04-29T12:44:51.331Z,102054.73
2019-04-29T12:47:26.550Z,102061.84
2019-04-29T12:50:07.382Z,102054.50
2019-04-29T12:52:38.306Z,102055.00
2019-04-29T12:55:20.099Z,102050.34
2019-04-29T12:57:51.484Z,102059.48
2019-04-29T13:00:25.055Z,102052.28
2019-04-29T13:03:30.952Z,102039.77
2019-04-29T13:06:09.512Z,102038.03
2019-04-29T13:08:42.798Z,102032.92
2019-04-29T13:11:18.946Z,102032.06
2019-04-29T13:13:51.279Z,102032.63
2019-04-29T13:16:25.488Z,102040.11
2019-04-29T13:19:20.355Z,102028.36
2019-04-29T13:21:48.937Z,102026.05
2019-04-29T13:24:24.846Z,102017.88
2019-04-29T13:26:54.438Z,102019.24
2019-04-29T13:29:27.808Z,102021.94
2019-04-29T13:32:01.639Z,102013.79
2019-04-29T13:34:33.492Z,102016.66
2019-04-29T13:37:07.679Z,102005.00
2019-04-29T13:39:40.681Z,102004.14
2019-04-29T13:42:15.915Z,101995.11
2019-04-29T13:45:05.464Z,101999.94
2019-04-29T13:47:29.342Z,101996.47
2019-04-29T13:50:17.820Z,101999.38
2019-04-29T13:52:40.263Z,101993.59
2019-04-29T13:55:29.893Z,101993.55
2019-04-29T13:57:50.786Z,101990.25
2019-04-29T14:00:37.749Z,101989.47
2019-04-29T14:03:11.515Z,101986.95
2019-04-29T14:05:43.856Z,101988.04
2019-04-29T14:08:16.923Z,101981.72
2019-04-29T14:10:51.107Z,101982.87
2019-04-29T14:13:25.842Z,101989.09
2019-04-29T14:16:00.916Z,101979.00
2019-04-29T14:18:35.006Z,101982.37
2019-04-29T14:21:07.090Z,101986.58
2019-04-29T14:23:44.994Z,101976.66
2019-04-29T14:26:17.910Z,101979.75
2019-04-29T14:28:49.198Z,101977.44
2019-04-29T14:31:22.797Z,101976.28
2019-04-29T14:34:01.498Z,101977.92
2019-04-29T14:36:40.577Z,101981.42
2019-04-29T14:39:13.033Z,101977.26
2019-04-29T14:41:50.975Z,101975.52
2019-04-29T14:44:30.486Z,101973.27
2019-04-29T14:47:08.510Z,101982.91
2019-04-29T14:49:42.754Z,101970.48
2019-04-29T14:52:15.043Z,101969.13
2019-04-29T14:54:48.917Z,101966.08
2019-04-29T14:57:20.840Z,101972.98
2019-04-29T14:59:55.116Z,101969.48
2019-04-29T15:02:28.149Z,101967.34
2019-04-29T15:05:00.407Z,101966.28
2019-04-29T15:07:35.261Z,101964.72
2019-04-29T15:10:09.943Z,101973.27
2019-04-29T15:13:19.641Z,101971.80
2019-04-29T15:16:04.246Z,101965.00
2019-04-29T15:18:48.846Z,101968.30
2019-04-29T15:21:32.556Z,101968.08
2019-04-29T15:24:00.294Z,101968.08
2019-04-29T15:26:34.189Z,101967.73
2019-04-29T15:29:05.130Z,101968.41
2019-04-29T15:31:36.350Z,101957.12
2019-04-29T15:34:09.004Z,101971.50
2019-04-29T15:36:42.178Z,101961.03
2019-04-29T15:39:13.557Z,101961.41
2019-04-29T15:41:45.602Z,101972.37
2019-04-29T15:44:20.487Z,101961.11
2019-04-29T15:46:52.785Z,101958.77
2019-04-29T15:49:26.530Z,101969.44
2019-04-29T15:51:58.313Z,101957.08
2019-04-29T15:54:29.747Z,101956.77
2019-04-29T15:57:03.581Z,101968.73
2019-04-29T15:59:47.992Z,101962.03
2019-04-29T16:02:08.225Z,101963.09
2019-04-29T16:04:51.540Z,101962.92
2019-04-29T16:07:40.786Z,101961.83
2019-04-29T16:10:20.593Z,101967.09
2019-04-29T16:13:00.282Z,101965.06
2019-04-29T16:15:34.359Z,101958.54
2019-04-29T16:18:14.863Z,101953.00
2019-04-29T16:20:44.348Z,101960.00
2019-04-29T16:23:15.021Z,101958.74
2019-04-29T16:25:52.424Z,101960.10
2019-04-29T16:28:24.261Z,101964.08
2019-04-29T16:30:54.716Z,101963.94
2019-04-29T16:33:25.565Z,101965.30
2019-04-29T16:38:29.022Z,101964.17
2019-04-29T16:41:06.248Z,101971.14
2019-04-29T16:43:46.541Z,101965.67
2019-04-29T16:46:23.539Z,101958.84
2019-04-29T16:48:55.379Z,101956.50
2019-04-29T16:51:28.079Z,101961.14
2019-04-29T16:54:00.777Z,101963.81
2019-04-29T16:56:31.414Z,101964.77
2019-04-29T16:59:09.115Z,101962.04
2019-04-29T17:01:36.760Z,101966.48
2019-04-29T17:04:07.649Z,101971.23
2019-04-29T17:07:09.130Z,101965.91
2019-04-29T17:09:31.836Z,101967.33
2019-04-29T17:12:02.860Z,101970.61
2019-04-29T17:15:01.197Z,101962.92
2019-04-29T17:17:09.251Z,101965.02
2019-04-29T17:19:42.991Z,101960.78
2019-04-29T17:22:27.421Z,101965.59
2019-04-29T17:24:54.820Z,101965.91
2019-04-29T17:27:29.052Z,101968.52
2019-04-29T17:30:17.567Z,101967.56
2019-04-29T17:33:06.916Z,101969.76
2019-04-29T17:35:14.230Z,101957.55
2019-04-29T17:35:42.964Z,101971.16
2019-04-29T17:38:11.209Z,101969.39
2019-04-29T17:40:50.689Z,101964.06
2019-04-29T17:43:19.002Z,101963.53
2019-04-29T17:46:00.547Z,101960.91
2019-04-29T17:48:35.914Z,101963.59
2019-04-29T17:51:08.584Z,101968.64
2019-04-29T17:53:47.027Z,101960.28
2019-04-29T17:56:31.392Z,101969.21
2019-04-29T17:59:22.831Z,101970.06
2019-04-29T18:02:21.526Z,101967.22
2019-04-29T18:04:49.657Z,101979.02
2019-04-29T18:07:25.979Z,101969.69
2019-04-29T18:10:17.652Z,101978.41
2019-04-29T18:12:49.604Z,101979.05
2019-04-29T18:15:22.186Z,101978.32
2019-04-29T18:17:53.155Z,101985.83
2019-04-29T18:20:32.841Z,101986.14
2019-04-29T18:23:19.270Z,101984.41
2019-04-29T18:25:59.500Z,101981.51
2019-04-29T18:28:31.772Z,101984.50
2019-04-29T18:31:05.903Z,101983.61
2019-04-29T18:33:36.755Z,101993.69
2019-04-29T18:36:19.071Z,101991.20
2019-04-29T18:38:47.515Z,101999.69
2019-04-29T18:41:26.757Z,102001.16
2019-04-29T18:43:57.817Z,102004.36
2019-04-29T18:46:28.087Z,101998.77
2019-04-29T18:49:06.576Z,102014.95
2019-04-29T18:51:37.608Z,102016.96
2019-04-29T18:54:09.040Z,102021.44
2019-04-29T18:56:40.604Z,102023.97
2019-04-29T18:59:15.983Z,102023.41
2019-04-29T19:01:47.179Z,102021.91
2019-04-29T19:04:19.496Z,102017.94
2019-04-29T19:07:02.093Z,102020.56
2019-04-29T19:09:40.869Z,102026.36
2019-04-29T19:12:12.861Z,102025.33
2019-04-29T19:14:47.740Z,102027.66
2019-04-29T19:17:21.823Z,102033.08
2019-04-29T19:19:54.993Z,102028.77
2019-04-29T19:22:27.789Z,102030.50
2019-04-29T19:24:59.059Z,102035.91
2019-04-29T19:27:30.586Z,102031.84
2019-04-29T19:30:02.181Z,102036.41
2019-04-29T19:32:32.947Z,102040.53
2019-04-29T19:35:04.333Z,102037.59
2019-04-29T19:37:37.573Z,102036.79
2019-04-29T19:40:08.402Z,102039.81
2019-04-29T19:42:39.706Z,102039.09
2019-04-29T19:45:14.596Z,102045.94
2019-04-29T19:47:53.186Z,102041.25
2019-04-29T19:50:28.220Z,102048.96
2019-04-29T19:53:00.759Z,102051.34
2019-04-29T19:55:42.179Z,102052.39
2019-04-29T19:58:12.699Z,102055.05
2019-04-29T20:00:49.612Z,102056.34
2019-04-29T20:03:26.561Z,102058.59
2019-04-29T20:06:08.555Z,102063.45
2019-04-29T20:08:53.143Z,102062.95
2019-04-29T20:11:17.344Z,102058.47
2019-04-29T20:14:03.817Z,102061.31
2019-04-29T20:16:39.763Z,102064.33
2019-04-29T20:19:21.103Z,102060.82
2019-04-29T20:22:05.609Z,102063.52
2019-04-29T20:24:36.127Z,102063.64
2019-04-29T20:27:09.078Z,102065.38
2019-04-29T20:29:40.553Z,102059.55
2019-04-29T20:32:11.345Z,102064.36
2019-04-29T20:34:47.584Z,102061.03
2019-04-29T20:37:19.884Z,102058.16
2019-04-29T20:39:59.330Z,102063.16
2019-04-29T20:42:28.466Z,102066.91
2019-04-29T20:45:01.206Z,102063.45
2019-04-29T20:47:40.454Z,102062.05
2019-04-29T20:50:08.860Z,102072.16
2019-04-29T20:52:43.271Z,102072.83
2019-04-29T20:55:15.810Z,102069.20
2019-04-29T20:57:52.398Z,102071.10
2019-04-29T21:00:25.052Z,102066.23
2019-04-29T21:02:55.290Z,102064.55
2019-04-29T21:05:27.744Z,102068.68
2019-04-29T21:08:03.448Z,102063.27
2019-04-29T21:10:32.203Z,102059.47
2019-04-29T21:13:18.826Z,102065.84
2019-04-29T21:16:01.211Z,102062.17
2019-04-29T21:18:32.470Z,102062.25
2019-04-29T21:21:04.515Z,102058.84
2019-04-29T21:23:36.897Z,102063.77
2019-04-29T21:26:09.786Z,102065.80
2019-04-29T21:28:41.802Z,102069.72
2019-04-29T21:31:18.600Z,102064.03
2019-04-29T21:33:50.782Z,102060.92
2019-04-29T21:36:30.667Z,102063.84
2019-04-29T21:39:07.176Z,102060.94
2019-04-29T21:41:45.875Z,102066.93
2019-04-29T21:44:17.070Z,102065.86
2019-04-29T21:46:47.725Z,102054.78
2019-04-29T21:49:18.322Z,102056.72
2019-04-29T21:51:49.964Z,102058.50
2019-04-29T21:54:20.730Z,102063.63
2019-04-29T21:56:51.941Z,102062.35
2019-04-29T21:59:23.197Z,102060.03
2019-04-29T22:01:56.179Z,102063.28
2019-04-29T22:04:27.486Z,102063.14
2019-04-29T22:06:59.915Z,102055.11
2019-04-29T22:09:36.154Z,102061.59
2019-04-29T22:12:05.553Z,102061.06
2019-04-29T22:14:36.288Z,102061.80
2019-04-29T22:17:11.419Z,102056.00
2019-04-29T22:19:42.331Z,102059.09
2019-04-29T22:22:13.189Z,102052.61
2019-04-29T22:24:45.769Z,102057.06
2019-04-29T22:27:16.365Z,102061.55
2019-04-29T22:29:47.519Z,102060.17
2019-04-29T22:32:19.194Z,102062.07
2019-04-29T22:34:54.420Z,102058.70
2019-04-29T22:37:25.487Z,102054.36
2019-04-29T22:39:58.612Z,102062.89
2019-04-29T22:42:48.881Z,102054.78
2019-04-29T22:45:20.226Z,102059.70
2019-04-29T22:47:54.411Z,102059.63
2019-04-29T22:50:24.119Z,102067.43
2019-04-29T22:52:57.095Z,102062.89
2019-04-29T22:55:30.876Z,102059.52
2019-04-29T22:58:00.841Z,102062.02
2019-04-29T23:00:33.830Z,102061.27
2019-04-29T23:03:04.852Z,102056.33
2019-04-29T23:05:37.930Z,102056.13
2019-04-29T23:08:08.103Z,102057.76
2019-04-29T23:11:04.141Z,102057.03
2019-04-29T23:13:33.204Z,102051.47
2019-04-29T23:16:04.100Z,102055.32
2019-04-29T23:18:42.189Z,102052.48
2019-04-29T23:21:16.262Z,102056.34
2019-04-29T23:24:13.022Z,102051.39
2019-04-29T23:26:42.437Z,102050.51
2019-04-29T23:29:12.979Z,102049.16
2019-04-29T23:31:45.281Z,102050.59
2019-04-29T23:34:16.147Z,102048.03
2019-04-29T23:36:48.914Z,102044.52
2019-04-29T23:39:19.562Z,102040.55
2019-04-29T23:41:55.222Z,102041.48
2019-04-29T23:44:26.328Z,102036.73
2019-04-29T23:47:05.273Z,102032.61
2019-04-29T23:49:35.373Z,102037.55
2019-04-29T23:52:21.642Z,102031.25
2019-04-29T23:54:52.620Z,102028.16
2019-04-29T23:57:27.265Z,102030.20
